createdAt,value
2023-05-04T00:01:54.961Z,-60
2023-05-04T00:06:56.206Z,-59
2023-05-04T00:11:57.662Z,-59
2023-05-04T00:16:58.947Z,-59
2023-05-04T00:22:00.471Z,-60
2023-05-04T00:27:02.321Z,-59
2023-05-04T00:32:03.990Z,-60
2023-05-04T00:37:06.290Z,-60
2023-05-04T00:42:07.674Z,-59
2023-05-04T00:47:09.308Z,-59
2023-05-04T00:52:10.598Z,-60
2023-05-04T00:57:11.783Z,-59
2023-05-04T01:02:13.133Z,-59
2023-05-04T01:07:14.343Z,-59
2023-05-04T01:12:15.514Z,-59
2023-05-04T01:17:16.794Z,-59
2023-05-04T01:22:17.953Z,-59
2023-05-04T01:27:19.134Z,-60
2023-05-04T01:32:20.323Z,-59
2023-05-04T01:37:21.562Z,-59
2023-05-04T01:42:22.775Z,-59
2023-05-04T01:47:24.011Z,-59
2023-05-04T01:52:26.461Z,-59
2023-05-04T01:57:27.686Z,-59
2023-05-04T02:02:29.051Z,-59
2023-05-04T02:07:30.385Z,-59
2023-05-04T02:12:31.570Z,-59
2023-05-04T02:17:32.889Z,-59
2023-05-04T02:22:34.082Z,-59
2023-05-04T02:27:35.260Z,-59
2023-05-04T02:32:36.529Z,-59
2023-05-04T02:37:37.865Z,-59
2023-05-04T02:42:39.045Z,-59
2023-05-04T02:47:40.298Z,-59
2023-05-04T02:52:41.544Z,-64
2023-05-04T02:57:42.772Z,-60
2023-05-04T03:02:44.086Z,-59
2023-05-04T03:07:45.540Z,-60
2023-05-04T03:12:46.877Z,-59
2023-05-04T03:17:48.291Z,-59
2023-05-04T03:22:49.566Z,-59
2023-05-04T03:27:50.817Z,-59
2023-05-04T03:32:52.088Z,-59
2023-05-04T03:37:53.345Z,-59
2023-05-04T03:42:54.538Z,-59
2023-05-04T03:47:55.865Z,-59
2023-05-04T03:52:57.147Z,-59
2023-05-04T03:57:58.354Z,-59
2023-05-04T04:02:59.631Z,-59
2023-05-04T04:08:01.014Z,-59
2023-05-04T04:13:02.519Z,-59
2023-05-04T04:18:03.768Z,-59
2023-05-04T04:23:05.068Z,-59
2023-05-04T04:28:06.266Z,-59
2023-05-04T04:33:07.514Z,-60
2023-05-04T04:38:09.132Z,-59
2023-05-04T04:43:11.319Z,-59
2023-05-04T04:48:12.858Z,-59
2023-05-04T04:53:14.202Z,-60
2023-05-04T04:58:15.402Z,-59
2023-05-04T05:03:17.118Z,-59
2023-05-04T05:08:18.351Z,-59
2023-05-04T05:13:19.682Z,-59
2023-05-04T05:18:21.574Z,-60
2023-05-04T05:23:22.768Z,-60
2023-05-04T05:28:24.037Z,-61
2023-05-04T05:33:25.381Z,-61
2023-05-04T05:38:26.830Z,-62
2023-05-04T05:43:28.124Z,-60
2023-05-04T05:48:29.350Z,-60
2023-05-04T05:53:30.574Z,-61
2023-05-04T05:58:31.752Z,-59
2023-05-04T06:03:33.267Z,-60
2023-05-04T06:08:34.767Z,-60
2023-05-04T06:13:35.999Z,-60
2023-05-04T06:18:37.185Z,-60
2023-05-04T06:23:38.421Z,-60
2023-05-04T06:28:39.622Z,-60
2023-05-04T06:33:40.804Z,-61
2023-05-04T06:38:42.099Z,-62
2023-05-04T06:43:43.697Z,-62
2023-05-04T06:48:44.970Z,-61
2023-05-04T06:53:46.130Z,-63
2023-05-04T06:58:47.528Z,-62
2023-05-04T07:03:48.936Z,-62
2023-05-04T07:08:50.622Z,-63
2023-05-04T07:13:51.824Z,-63
2023-05-04T07:18:52.999Z,-62
2023-05-04T07:23:55.065Z,-61
2023-05-04T07:28:56.301Z,-60
2023-05-04T07:33:57.482Z,-61
2023-05-04T07:38:58.717Z,-62
2023-05-04T07:43:59.957Z,-62
2023-05-04T07:49:01.246Z,-60
2023-05-04T07:54:02.609Z,-61
2023-05-04T07:59:03.805Z,-60
2023-05-04T08:04:05.058Z,-61
2023-05-04T08:09:06.653Z,-61
2023-05-04T08:14:08.180Z,-61
2023-05-04T08:19:09.996Z,-61
2023-05-04T08:24:11.409Z,-62
2023-05-04T08:29:12.650Z,-61
2023-05-04T08:34:13.936Z,-61
2023-05-04T08:39:15.419Z,-61
2023-05-04T08:44:16.648Z,-61
2023-05-04T08:49:17.932Z,-62
2023-05-04T08:54:19.192Z,-61
2023-05-04T08:59:20.494Z,-61
2023-05-04T09:04:22.348Z,-61
2023-05-04T09:09:23.615Z,-61
2023-05-04T09:14:24.910Z,-63
2023-05-04T09:19:33.176Z,-65
2023-05-04T09:24:34.423Z,-61
2023-05-04T09:29:39.453Z,-62
2023-05-04T09:34:40.646Z,-61
2023-05-04T09:39:42.086Z,-61
2023-05-04T09:44:43.277Z,-61
2023-05-04T09:49:44.520Z,-61
2023-05-04T09:54:45.723Z,-62
2023-05-04T09:59:47.301Z,-61
2023-05-04T10:04:48.525Z,-62
2023-05-04T10:09:49.825Z,-63
2023-05-04T10:14:51.125Z,-63
2023-05-04T10:19:52.350Z,-59
2023-05-04T10:24:53.510Z,-60
2023-05-04T10:29:55.041Z,-61
2023-05-04T10:34:57.387Z,-60
2023-05-04T10:39:58.578Z,-60
2023-05-04T10:45:00.142Z,-60
2023-05-04T10:50:01.554Z,-60
2023-05-04T10:55:04.028Z,-60
2023-05-04T11:00:05.398Z,-60
2023-05-04T11:05:09.989Z,-60
2023-05-04T11:10:11.179Z,-60
2023-05-04T11:15:12.471Z,-60
2023-05-04T11:20:13.776Z,-60
2023-05-04T11:25:15.052Z,-60
2023-05-04T11:30:16.306Z,-60
2023-05-04T11:35:18.600Z,-61
2023-05-04T11:40:19.998Z,-62
2023-05-04T11:45:21.237Z,-62
2023-05-04T11:50:22.529Z,-62
2023-05-04T11:55:23.753Z,-62
2023-05-04T12:00:24.944Z,-62
2023-05-04T12:05:26.213Z,-61
2023-05-04T12:10:27.823Z,-62
2023-05-04T12:15:29.742Z,-61
2023-05-04T12:20:30.980Z,-62
2023-05-04T12:25:32.248Z,-62
2023-05-04T12:30:33.593Z,-61
2023-05-04T12:35:34.789Z,-62
2023-05-04T12:40:36.469Z,-63
2023-05-04T12:45:37.717Z,-62
2023-05-04T12:50:39.001Z,-62
2023-05-04T12:55:40.249Z,-63
2023-05-04T13:00:41.812Z,-62
2023-05-04T13:05:43.791Z,-62
2023-05-04T13:10:46.314Z,-63
2023-05-04T13:15:48.659Z,-61
2023-05-04T13:20:51.948Z,-60
2023-05-04T13:25:53.230Z,-60
2023-05-04T13:30:54.478Z,-60
2023-05-04T13:35:57.842Z,-60
2023-05-04T13:40:59.479Z,-60
2023-05-04T13:46:00.985Z,-60
2023-05-04T13:51:02.234Z,-62
2023-05-04T13:56:03.486Z,-62
2023-05-04T14:01:04.769Z,-62
2023-05-04T14:06:06.145Z,-62
2023-05-04T14:11:07.308Z,-62
2023-05-04T14:16:08.595Z,-62
2023-05-04T14:21:09.963Z,-62
2023-05-04T14:26:11.476Z,-62
2023-05-04T14:31:12.726Z,-62
2023-05-04T14:36:14.012Z,-62
2023-05-04T14:41:15.370Z,-62
2023-05-04T14:46:16.619Z,-61
2023-05-04T14:51:17.839Z,-61
2023-05-04T14:56:19.051Z,-61
2023-05-04T15:01:20.264Z,-61
2023-05-04T15:06:21.540Z,-61
2023-05-04T15:11:22.839Z,-61
2023-05-04T15:16:29.808Z,-61
2023-05-04T15:21:31.610Z,-61
2023-05-04T15:26:34.439Z,-61
2023-05-04T15:31:35.726Z,-61
2023-05-04T15:36:36.937Z,-61
2023-05-04T15:41:38.139Z,-61
2023-05-04T15:46:39.445Z,-61
2023-05-04T15:51:41.638Z,-61
2023-05-04T15:56:43.123Z,-61
2023-05-04T16:01:44.329Z,-61
2023-05-04T16:06:46.062Z,-61
2023-05-04T16:11:47.278Z,-61
2023-05-04T16:16:48.678Z,-61
2023-05-04T16:21:50.517Z,-61
2023-05-04T16:26:53.653Z,-59
2023-05-04T16:31:54.990Z,-59
2023-05-04T16:36:56.189Z,-59
2023-05-04T16:41:57.390Z,-59
2023-05-04T16:46:58.601Z,-59
2023-05-04T16:51:59.904Z,-59
2023-05-04T16:57:02.007Z,-59
2023-05-04T17:02:03.400Z,-59
2023-05-04T17:07:04.696Z,-59
2023-05-04T17:12:06.037Z,-59
2023-05-04T17:17:08.061Z,-59
2023-05-04T17:22:09.327Z,-59
2023-05-04T17:27:11.431Z,-59
2023-05-04T17:32:12.884Z,-59
2023-05-04T17:37:14.059Z,-59
2023-05-04T17:42:18.009Z,-59
2023-05-04T17:47:19.220Z,-59
2023-05-04T17:52:20.444Z,-59
2023-05-04T17:57:21.717Z,-59
2023-05-04T18:02:22.980Z,-59
2023-05-04T18:07:24.244Z,-59
2023-05-04T18:12:25.631Z,-59
2023-05-04T18:17:28.587Z,-59
2023-05-04T18:22:29.843Z,-59
2023-05-04T18:27:31.590Z,-59
2023-05-04T18:32:32.850Z,-59
2023-05-04T18:37:34.167Z,-59
2023-05-04T18:42:35.460Z,-59
2023-05-04T18:47:36.799Z,-59
2023-05-04T18:52:38.068Z,-59
2023-05-04T18:57:39.319Z,-59
2023-05-04T19:02:40.589Z,-59
2023-05-04T19:07:41.905Z,-59
2023-05-04T19:12:43.199Z,-59
2023-05-04T19:17:44.496Z,-59
2023-05-04T19:22:45.771Z,-59
2023-05-04T19:27:48.557Z,-59
2023-05-04T19:32:50.769Z,-58
2023-05-04T19:37:52.019Z,-59
2023-05-04T19:42:53.231Z,-59
2023-05-04T19:47:54.459Z,-59
2023-05-04T19:52:55.809Z,-59
2023-05-04T19:57:57.110Z,-59
2023-05-04T20:02:58.398Z,-59
2023-05-04T20:08:00.342Z,-60
2023-05-04T20:13:03.230Z,-59
2023-05-04T20:18:04.489Z,-60
2023-05-04T20:23:05.732Z,-60
2023-05-04T20:28:06.982Z,-60
2023-05-04T20:33:08.324Z,-59
2023-05-04T20:38:09.530Z,-59
2023-05-04T20:43:11.357Z,-59
2023-05-04T20:48:12.688Z,-60
2023-05-04T20:53:13.972Z,-59
2023-05-04T20:58:15.195Z,-59
2023-05-04T21:03:16.514Z,-59
2023-05-04T21:08:17.780Z,-60
2023-05-04T21:13:19.189Z,-59
2023-05-04T21:18:20.441Z,-59
2023-05-04T21:23:21.764Z,-60
2023-05-04T21:28:22.980Z,-59
2023-05-04T21:33:24.301Z,-59
2023-05-04T21:38:25.469Z,-60
2023-05-04T21:43:26.689Z,-59
2023-05-04T21:48:27.846Z,-60
2023-05-04T21:53:33.212Z,-59
2023-05-04T21:58:34.438Z,-60
2023-05-04T22:03:35.697Z,-59
2023-05-04T22:08:37.206Z,-60
2023-05-04T22:13:38.448Z,-59
2023-05-04T22:18:39.683Z,-59
2023-05-04T22:23:41.040Z,-59
2023-05-04T22:28:42.235Z,-59
2023-05-04T22:33:43.533Z,-59
2023-05-04T22:38:44.790Z,-59
2023-05-04T22:43:45.971Z,-62
2023-05-04T22:48:47.313Z,-59
2023-05-04T22:53:48.497Z,-59
2023-05-04T22:58:49.732Z,-60
2023-05-04T23:03:51.278Z,-59
2023-05-04T23:08:52.608Z,-59
2023-05-04T23:13:53.808Z,-60
2023-05-04T23:18:55.028Z,-59
2023-05-04T23:23:56.226Z,-59
2023-05-04T23:28:57.460Z,-59
2023-05-04T23:33:58.704Z,-59
2023-05-04T23:38:59.935Z,-59
2023-05-04T23:44:01.854Z,-59
2023-05-04T23:49:03.682Z,-60
2023-05-04T23:54:04.946Z,-60
2023-05-04T23:59:06.158Z,-60
